Peyton, Colorado
Current Conditions -  °F | °C
As of 5:53 AM on Thursday 23 Oct 2014 (Local Time) from KFLY Reporting Station
Clear Clear  
Wind Chill: 36°   Ceiling: Unl
Heat Index: 41°   Visibility: 10mi
Dew Point: 32°   Wind: 8mph
Humidity: 69%   Direction: 320°NW
Pressure: 30.23"   Gusts: NA
Location:  39.03°N, 104.48°W
Report Text: KFLY 231153Z AUTO 32007KT 10SM CLR 05/00 A3023 RMK AO2 T00520000 10080 20035
Loading
Personal Weather Stations






























Interactive Weather Map
Tropical Storm Tracking
New forecast layout! Learn more

10-Day Weather Forecast

Advertisements
Track Severe Weather on mobile